createdAt,value
2023-03-06T00:00:19.301Z,66.87
2023-03-06T00:02:46.216Z,66.14
2023-03-06T00:05:14.529Z,66.70
2023-03-06T00:07:41.998Z,66.19
2023-03-06T00:10:12.488Z,66.53
2023-03-06T00:12:38.905Z,67.66
2023-03-06T00:15:06.010Z,67.75
2023-03-06T00:17:32.527Z,67.23
2023-03-06T00:19:59.057Z,66.65
2023-03-06T00:22:26.592Z,67.65
2023-03-06T00:24:53.684Z,67.29
2023-03-06T00:27:21.231Z,66.65
2023-03-06T00:29:49.779Z,66.78
2023-03-06T00:32:16.305Z,66.60
2023-03-06T00:34:42.875Z,66.97
2023-03-06T00:37:09.382Z,66.59
2023-03-06T00:39:35.908Z,68.33
2023-03-06T00:42:02.429Z,67.25
2023-03-06T00:44:32.002Z,67.75
2023-03-06T00:46:58.528Z,67.07
2023-03-06T00:49:25.068Z,67.50
2023-03-06T00:51:51.648Z,67.29
2023-03-06T00:54:18.227Z,67.33
2023-03-06T00:56:44.760Z,68.09
2023-03-06T00:59:11.434Z,68.16
2023-03-06T01:01:38.432Z,67.85
2023-03-06T01:04:05.113Z,68.59
2023-03-06T01:06:31.651Z,68.17
2023-03-06T01:08:58.456Z,68.81
2023-03-06T01:11:25.023Z,68.28
2023-03-06T01:13:51.906Z,67.23
2023-03-06T01:16:19.532Z,68.92
2023-03-06T01:18:46.719Z,69.07
2023-03-06T01:21:14.336Z,68.19
2023-03-06T01:23:42.525Z,68.80
2023-03-06T01:26:11.041Z,68.09
2023-03-06T01:28:40.028Z,68.69
2023-03-06T01:31:09.591Z,68.84
2023-03-06T01:33:38.482Z,67.79
2023-03-06T01:36:10.480Z,68.50
2023-03-06T01:38:38.363Z,67.57
2023-03-06T01:41:07.540Z,68.14
2023-03-06T01:43:38.422Z,68.78
2023-03-06T01:46:44.081Z,69.21
2023-03-06T01:49:33.877Z,68.84
2023-03-06T01:52:12.142Z,68.62
2023-03-06T01:57:22.544Z,68.77
2023-03-06T01:59:54.535Z,69.52
2023-03-06T02:02:21.314Z,67.97
2023-03-06T02:04:48.587Z,69.19
2023-03-06T02:07:18.692Z,68.41
2023-03-06T02:09:45.229Z,68.44
2023-03-06T02:12:14.520Z,68.41
2023-03-06T02:14:41.862Z,68.78
2023-03-06T02:17:11.795Z,69.47
2023-03-06T02:22:22.502Z,69.38
2023-03-06T02:27:27.852Z,68.44
2023-03-06T02:29:54.531Z,69.88
2023-03-06T02:32:21.148Z,69.62
2023-03-06T02:37:26.189Z,70.05
2023-03-06T02:39:59.920Z,69.63
2023-03-06T02:42:29.006Z,68.96
2023-03-06T02:44:59.200Z,69.56
2023-03-06T02:47:25.952Z,69.18
2023-03-06T02:49:52.596Z,70.00
2023-03-06T02:52:19.165Z,69.97
2023-03-06T02:54:45.702Z,69.39
2023-03-06T02:57:13.151Z,69.57
2023-03-06T02:59:39.766Z,69.16
2023-03-06T03:02:06.647Z,69.35
2023-03-06T03:04:33.216Z,69.79
2023-03-06T03:06:59.807Z,70.16
2023-03-06T03:09:26.455Z,69.90
2023-03-06T03:11:53.236Z,69.84
2023-03-06T03:14:19.865Z,69.29
2023-03-06T03:16:46.610Z,70.77
2023-03-06T03:19:13.170Z,69.25
2023-03-06T03:21:41.011Z,69.78
2023-03-06T03:24:08.320Z,69.87
2023-03-06T03:26:34.873Z,71.04
2023-03-06T03:29:01.584Z,70.69
2023-03-06T03:31:28.405Z,70.68
2023-03-06T03:33:55.356Z,71.67
2023-03-06T03:36:21.947Z,69.95
2023-03-06T03:38:48.593Z,70.24
2023-03-06T03:41:15.118Z,71.46
2023-03-06T03:43:42.983Z,70.92
2023-03-06T03:46:09.678Z,71.41
2023-03-06T03:48:36.187Z,70.63
2023-03-06T03:51:08.418Z,70.26
2023-03-06T03:53:34.998Z,71.69
2023-03-06T03:56:01.664Z,70.80
2023-03-06T03:58:28.234Z,70.73
2023-03-06T04:00:54.845Z,71.36
2023-03-06T04:03:21.723Z,71.17
2023-03-06T04:05:48.261Z,70.32
2023-03-06T04:08:14.884Z,71.45
2023-03-06T04:10:41.417Z,71.03
2023-03-06T04:13:09.973Z,71.75
2023-03-06T04:15:36.955Z,71.64
2023-03-06T04:18:03.858Z,71.24
2023-03-06T04:20:30.769Z,71.10
2023-03-06T04:22:57.339Z,71.89
2023-03-06T04:25:23.908Z,71.12
2023-03-06T04:27:50.544Z,72.03
2023-03-06T04:30:17.274Z,70.80
2023-03-06T04:32:43.935Z,72.09
2023-03-06T04:35:10.554Z,72.42
2023-03-06T04:37:37.077Z,71.54
2023-03-06T04:40:04.513Z,71.33
2023-03-06T04:42:31.279Z,71.22
2023-03-06T04:44:57.837Z,71.39
2023-03-06T04:47:24.410Z,71.92
2023-03-06T04:49:51.119Z,71.54
2023-03-06T04:52:17.709Z,72.62
2023-03-06T04:54:46.026Z,72.96
2023-03-06T04:57:14.157Z,71.81
2023-03-06T04:59:40.684Z,73.15
2023-03-06T05:02:07.291Z,72.05
2023-03-06T05:04:33.904Z,72.71
2023-03-06T05:07:00.427Z,73.33
2023-03-06T05:09:26.948Z,72.84
2023-03-06T05:11:53.559Z,72.59
2023-03-06T05:14:20.753Z,72.57
2023-03-06T05:16:47.361Z,73.34
2023-03-06T05:19:14.122Z,72.91
2023-03-06T05:21:40.650Z,72.81
2023-03-06T05:24:07.268Z,73.56
2023-03-06T05:26:34.836Z,73.56
2023-03-06T05:29:01.387Z,73.24
2023-03-06T05:31:28.008Z,73.61
2023-03-06T05:33:54.545Z,73.83
2023-03-06T05:36:21.151Z,73.25
2023-03-06T05:38:47.689Z,73.37
2023-03-06T05:41:14.313Z,73.99
2023-03-06T05:43:40.928Z,73.40
2023-03-06T05:46:08.232Z,74.38
2023-03-06T05:48:35.624Z,73.58
2023-03-06T05:51:02.722Z,73.57
2023-03-06T05:53:29.821Z,73.50
2023-03-06T05:56:00.045Z,73.91
2023-03-06T05:58:27.394Z,73.54
2023-03-06T06:00:53.992Z,74.08
2023-03-06T06:03:21.027Z,74.17
2023-03-06T06:05:47.710Z,73.59
2023-03-06T06:08:14.276Z,74.39
2023-03-06T06:10:40.839Z,74.34
2023-03-06T06:13:07.847Z,73.75
2023-03-06T06:15:34.541Z,74.30
2023-03-06T06:18:01.298Z,74.58
2023-03-06T06:20:28.562Z,74.40
2023-03-06T06:22:55.323Z,74.41
2023-03-06T06:25:22.256Z,74.17
2023-03-06T06:27:48.973Z,74.07
2023-03-06T06:30:15.695Z,73.93
2023-03-06T06:32:42.422Z,74.50
2023-03-06T06:35:09.306Z,74.67
2023-03-06T06:37:35.852Z,74.68
2023-03-06T06:40:02.483Z,74.83
2023-03-06T06:42:34.621Z,75.02
2023-03-06T06:45:05.281Z,74.34
2023-03-06T06:47:33.064Z,74.79
2023-03-06T06:50:00.038Z,74.58
2023-03-06T06:52:26.612Z,74.85
2023-03-06T06:54:53.231Z,74.41
2023-03-06T06:57:19.911Z,75.18
2023-03-06T06:59:46.546Z,74.52
2023-03-06T07:02:15.722Z,75.29
2023-03-06T07:05:00.370Z,74.73
2023-03-06T07:07:28.928Z,75.21
2023-03-06T07:09:56.017Z,74.98
2023-03-06T07:12:22.872Z,74.53
2023-03-06T07:14:49.494Z,75.20
2023-03-06T07:17:16.117Z,74.70
2023-03-06T07:19:42.678Z,75.63
2023-03-06T07:22:09.293Z,75.05
2023-03-06T07:24:35.811Z,74.86
2023-03-06T07:27:02.390Z,75.26
2023-03-06T07:29:29.401Z,75.02
2023-03-06T07:31:55.981Z,75.59
2023-03-06T07:34:22.694Z,75.33
2023-03-06T07:36:50.916Z,75.90
2023-03-06T07:39:17.815Z,75.60
2023-03-06T07:41:44.504Z,75.54
2023-03-06T07:44:11.078Z,75.55
2023-03-06T07:46:37.675Z,75.89
2023-03-06T07:49:04.273Z,76.18
2023-03-06T07:51:30.838Z,75.11
2023-03-06T07:53:57.382Z,76.07
2023-03-06T07:56:23.973Z,75.69
2023-03-06T07:58:50.500Z,75.91
2023-03-06T08:01:20.233Z,75.86
2023-03-06T08:03:47.787Z,75.91
2023-03-06T08:06:17.112Z,76.01
2023-03-06T08:08:46.426Z,75.87
2023-03-06T08:11:15.841Z,76.04
2023-03-06T08:13:42.707Z,76.12
2023-03-06T08:16:10.149Z,76.24
2023-03-06T08:18:39.603Z,76.36
2023-03-06T08:21:13.321Z,76.17
2023-03-06T08:23:40.604Z,75.98
2023-03-06T08:26:10.769Z,76.09
2023-03-06T08:28:37.311Z,76.03
2023-03-06T08:31:10.166Z,76.11
2023-03-06T08:33:37.038Z,75.92
2023-03-06T08:36:03.787Z,76.31
2023-03-06T08:38:30.353Z,76.14
2023-03-06T08:40:57.057Z,75.98
2023-03-06T08:43:23.587Z,76.66
2023-03-06T08:45:54.860Z,76.31
2023-03-06T08:48:21.637Z,76.27
2023-03-06T08:50:48.423Z,76.21
2023-03-06T08:53:15.295Z,76.21
2023-03-06T08:55:41.894Z,76.11
2023-03-06T08:58:08.712Z,75.99
2023-03-06T09:00:37.678Z,76.07
2023-03-06T09:03:04.943Z,76.65
2023-03-06T09:05:32.213Z,76.15
2023-03-06T09:07:58.834Z,75.94
2023-03-06T09:10:26.191Z,75.99
2023-03-06T09:12:55.084Z,76.65
2023-03-06T09:15:22.926Z,75.93
2023-03-06T09:17:50.849Z,76.32
2023-03-06T09:20:18.582Z,76.56
2023-03-06T09:22:45.764Z,75.83
2023-03-06T09:25:13.856Z,75.50
2023-03-06T09:27:41.058Z,75.63
2023-03-06T09:30:08.791Z,76.81
2023-03-06T09:32:35.455Z,75.97
2023-03-06T09:35:02.034Z,75.41
2023-03-06T09:37:28.575Z,76.46
2023-03-06T09:39:55.192Z,76.47
2023-03-06T09:42:23.809Z,75.59
2023-03-06T09:44:54.801Z,75.56
2023-03-06T09:47:48.372Z,76.11
2023-03-06T09:50:40.744Z,76.18
2023-03-06T09:53:38.000Z,75.46
2023-03-06T09:56:17.959Z,75.51
2023-03-06T09:58:50.113Z,74.75
2023-03-06T10:01:23.601Z,74.92
2023-03-06T10:06:30.949Z,74.33
2023-03-06T10:09:05.620Z,74.20
2023-03-06T10:11:46.323Z,74.59
2023-03-06T10:14:30.615Z,73.86
2023-03-06T10:16:58.540Z,74.31
2023-03-06T10:19:34.124Z,75.13
2023-03-06T10:22:07.261Z,74.91
2023-03-06T10:24:48.160Z,75.26
2023-03-06T10:35:21.793Z,74.32
2023-03-06T10:37:49.431Z,73.12
2023-03-06T10:40:31.112Z,73.36
2023-03-06T10:43:10.872Z,72.85
2023-03-06T10:45:49.451Z,72.99
2023-03-06T10:48:25.335Z,73.74
2023-03-06T10:50:54.898Z,73.55
2023-03-06T10:56:01.394Z,72.60
2023-03-06T10:58:30.329Z,72.78
2023-03-06T11:03:54.204Z,72.85
2023-03-06T11:06:35.188Z,72.58
2023-03-06T11:11:51.374Z,72.80
2023-03-06T11:14:23.022Z,72.55
2023-03-06T11:16:53.423Z,72.58
2023-03-06T11:19:29.500Z,72.36
2023-03-06T11:22:18.466Z,72.10
2023-03-06T11:24:50.402Z,71.22
2023-03-06T11:27:34.531Z,71.82
2023-03-06T11:30:07.666Z,71.91
2023-03-06T11:32:57.625Z,72.05
2023-03-06T11:35:28.429Z,72.07
2023-03-06T11:38:00.836Z,71.33
2023-03-06T11:40:32.289Z,71.51
2023-03-06T11:45:47.245Z,71.88
2023-03-06T11:51:06.410Z,71.49
2023-03-06T11:53:39.368Z,71.89
2023-03-06T11:56:22.861Z,70.52
2023-03-06T12:07:35.968Z,70.69
2023-03-06T12:18:28.993Z,69.56
2023-03-06T12:21:20.162Z,69.84
2023-03-06T12:24:21.501Z,70.20
2023-03-06T12:29:49.644Z,69.48
2023-03-06T12:38:03.440Z,69.01
2023-03-06T12:43:53.970Z,68.94
2023-03-06T12:46:22.526Z,69.38
2023-03-06T12:49:03.064Z,69.04
2023-03-06T12:51:31.274Z,68.73
2023-03-06T12:54:00.339Z,68.41
2023-03-06T12:56:28.666Z,68.92
2023-03-06T12:58:57.167Z,69.15
2023-03-06T13:14:58.259Z,68.86
2023-03-06T13:20:35.003Z,68.28
2023-03-06T13:23:44.334Z,68.91
2023-03-06T13:29:46.860Z,68.59
2023-03-06T13:34:51.726Z,68.78
2023-03-06T13:42:36.064Z,68.67
2023-03-06T13:45:24.799Z,67.96
2023-03-06T13:48:15.845Z,68.91
2023-03-06T13:53:51.591Z,68.52
2023-03-06T14:10:21.287Z,68.20
2023-03-06T14:21:13.429Z,68.82
2023-03-06T14:23:42.737Z,68.04
2023-03-06T14:28:59.866Z,67.84
2023-03-06T14:31:31.740Z,68.46
2023-03-06T14:34:02.299Z,68.18
2023-03-06T14:36:36.266Z,67.77
2023-03-06T14:39:08.867Z,67.46
2023-03-06T14:41:36.676Z,67.38
2023-03-06T14:44:25.822Z,67.55
2023-03-06T14:46:55.859Z,67.32
2023-03-06T14:49:25.055Z,66.88
2023-03-06T14:51:55.351Z,67.42
2023-03-06T14:54:28.670Z,67.27
2023-03-06T14:57:02.603Z,66.74
2023-03-06T14:59:33.037Z,67.11
2023-03-06T15:02:03.392Z,67.90
2023-03-06T15:07:21.797Z,68.01
2023-03-06T15:09:51.718Z,69.05
2023-03-06T15:17:45.698Z,68.46
2023-03-06T15:20:52.470Z,68.59
2023-03-06T15:23:26.750Z,69.26
2023-03-06T15:25:59.214Z,68.55
2023-03-06T15:31:23.030Z,69.85
2023-03-06T15:36:48.513Z,70.45
2023-03-06T15:42:28.052Z,69.25
2023-03-06T15:44:57.047Z,70.05
2023-03-06T15:47:24.386Z,69.64
2023-03-06T15:49:53.191Z,71.08
2023-03-06T15:52:22.065Z,71.17
2023-03-06T15:54:49.250Z,71.49
2023-03-06T15:57:25.247Z,70.95
2023-03-06T15:59:52.521Z,70.60
2023-03-06T16:02:22.138Z,70.67
2023-03-06T16:04:49.415Z,71.67
2023-03-06T16:07:16.100Z,71.30
2023-03-06T16:09:43.173Z,72.15
2023-03-06T16:12:16.030Z,71.15
2023-03-06T16:14:42.670Z,70.90
2023-03-06T16:17:12.222Z,72.33
2023-03-06T16:19:38.933Z,72.18
2023-03-06T16:22:05.535Z,72.47
2023-03-06T16:24:32.426Z,72.18
2023-03-06T16:27:01.506Z,72.05
2023-03-06T16:29:28.521Z,72.57
2023-03-06T16:31:56.845Z,73.63
2023-03-06T16:34:23.928Z,72.56
2023-03-06T16:36:50.652Z,73.55
2023-03-06T16:39:19.762Z,73.73
2023-03-06T16:41:46.603Z,74.35
2023-03-06T16:44:13.584Z,73.09
2023-03-06T16:46:45.319Z,74.51
2023-03-06T16:49:16.951Z,74.17
2023-03-06T16:51:43.691Z,73.94
2023-03-06T16:54:11.379Z,73.57
2023-03-06T16:56:37.936Z,74.53
2023-03-06T16:59:04.549Z,73.54
2023-03-06T17:01:31.101Z,73.17
2023-03-06T17:03:57.733Z,73.84
2023-03-06T17:06:24.509Z,74.70
2023-03-06T17:08:51.209Z,74.75
2023-03-06T17:11:20.279Z,74.28
2023-03-06T17:13:47.976Z,73.63
2023-03-06T17:16:16.641Z,74.64
2023-03-06T17:18:45.165Z,74.91
2023-03-06T17:21:12.607Z,73.59
2023-03-06T17:23:39.140Z,74.16
2023-03-06T17:28:45.113Z,74.26
2023-03-06T17:31:16.204Z,74.43
2023-03-06T17:33:43.612Z,74.36
2023-03-06T17:36:11.460Z,75.25
2023-03-06T17:38:38.143Z,75.40
2023-03-06T17:41:06.555Z,74.93
2023-03-06T17:43:33.406Z,74.96
2023-03-06T17:46:04.691Z,74.93
2023-03-06T17:48:31.355Z,75.33
2023-03-06T17:50:58.235Z,74.52
2023-03-06T17:53:25.218Z,75.79
2023-03-06T17:55:51.834Z,75.98
2023-03-06T17:58:18.643Z,75.71
2023-03-06T18:00:45.938Z,76.00
2023-03-06T18:03:12.567Z,77.14
2023-03-06T18:05:39.272Z,76.00
2023-03-06T18:08:08.245Z,76.79
2023-03-06T18:10:34.880Z,76.51
2023-03-06T18:13:01.423Z,76.30
2023-03-06T18:15:28.032Z,75.70
2023-03-06T18:17:56.626Z,76.70
2023-03-06T18:20:23.210Z,75.66
2023-03-06T18:22:49.815Z,75.94
2023-03-06T18:25:17.483Z,76.42
2023-03-06T18:27:44.080Z,76.40
2023-03-06T18:30:11.314Z,75.46
2023-03-06T18:32:37.896Z,75.25
2023-03-06T18:35:04.835Z,75.52
2023-03-06T18:37:31.429Z,76.46
2023-03-06T18:39:58.100Z,75.59
2023-03-06T18:42:24.770Z,76.90
2023-03-06T18:44:51.276Z,76.08
2023-03-06T18:47:17.854Z,75.79
2023-03-06T18:49:45.973Z,76.00
2023-03-06T18:52:12.971Z,75.25
2023-03-06T18:54:39.660Z,76.06
2023-03-06T18:57:06.371Z,76.22
2023-03-06T18:59:33.189Z,75.91
2023-03-06T19:01:59.841Z,74.79
2023-03-06T19:04:27.145Z,75.58
2023-03-06T19:06:54.898Z,75.65
2023-03-06T19:09:22.214Z,75.60
2023-03-06T19:11:49.238Z,75.78
2023-03-06T19:14:16.175Z,75.33
2023-03-06T19:16:42.980Z,75.10
2023-03-06T19:19:09.594Z,75.33
2023-03-06T19:21:36.175Z,76.13
2023-03-06T19:24:02.888Z,75.78
2023-03-06T19:26:29.674Z,75.37
2023-03-06T19:28:56.290Z,75.97
2023-03-06T19:31:25.793Z,75.51
2023-03-06T19:33:53.753Z,75.67
2023-03-06T19:36:23.734Z,75.83
2023-03-06T19:38:53.923Z,76.22
2023-03-06T19:41:20.620Z,75.50
2023-03-06T19:43:52.970Z,75.22
2023-03-06T19:46:20.948Z,76.24
2023-03-06T19:48:47.718Z,76.18
2023-03-06T19:51:14.506Z,75.46
2023-03-06T19:53:41.272Z,76.14
2023-03-06T19:56:11.347Z,75.65
2023-03-06T19:58:38.363Z,76.23
2023-03-06T20:01:07.748Z,76.07
2023-03-06T20:03:34.311Z,76.15
2023-03-06T20:06:01.221Z,75.85
2023-03-06T20:08:27.800Z,75.98
2023-03-06T20:10:54.361Z,75.87
2023-03-06T20:13:20.925Z,76.21
2023-03-06T20:15:47.478Z,75.50
2023-03-06T20:18:14.210Z,75.64
2023-03-06T20:20:40.881Z,75.75
2023-03-06T20:23:07.440Z,75.45
2023-03-06T20:25:36.525Z,75.75
2023-03-06T20:28:04.075Z,75.37
2023-03-06T20:30:37.752Z,75.07
2023-03-06T20:33:05.417Z,74.30
2023-03-06T20:35:32.104Z,75.23
2023-03-06T20:37:59.817Z,75.30
2023-03-06T20:40:26.568Z,74.70
2023-03-06T20:42:53.097Z,75.02
2023-03-06T20:45:19.756Z,75.34
2023-03-06T20:47:47.168Z,75.14
2023-03-06T20:50:15.370Z,75.44
2023-03-06T20:52:42.011Z,74.78
2023-03-06T20:55:09.106Z,74.89
2023-03-06T20:57:35.706Z,75.00
2023-03-06T21:00:03.523Z,75.36
2023-03-06T21:02:30.186Z,74.87
2023-03-06T21:04:56.725Z,74.65
2023-03-06T21:07:23.396Z,74.60
2023-03-06T21:09:49.942Z,74.74
2023-03-06T21:12:16.679Z,74.93
2023-03-06T21:14:43.408Z,74.72
2023-03-06T21:17:09.925Z,74.43
2023-03-06T21:19:36.915Z,74.69
2023-03-06T21:22:03.595Z,74.92
2023-03-06T21:24:30.133Z,75.21
2023-03-06T21:26:56.690Z,74.54
2023-03-06T21:29:23.216Z,75.01
2023-03-06T21:31:49.905Z,74.78
2023-03-06T21:34:16.445Z,74.79
2023-03-06T21:36:43.566Z,74.45
2023-03-06T21:39:10.598Z,74.70
2023-03-06T21:41:38.157Z,74.78
2023-03-06T21:44:05.736Z,74.56
2023-03-06T21:46:33.026Z,74.63
2023-03-06T21:48:59.729Z,74.65
2023-03-06T21:51:27.211Z,74.66
2023-03-06T21:53:54.767Z,74.33
2023-03-06T21:56:25.018Z,74.57
2023-03-06T21:58:51.637Z,74.32
2023-03-06T22:01:22.158Z,74.40
2023-03-06T22:03:48.818Z,74.46
2023-03-06T22:06:19.079Z,74.50
2023-03-06T22:08:45.956Z,74.50
2023-03-06T22:11:15.962Z,74.33
2023-03-06T22:13:43.037Z,74.89
2023-03-06T22:16:11.677Z,74.41
2023-03-06T22:18:38.353Z,74.48
2023-03-06T22:21:08.189Z,74.48
2023-03-06T22:23:34.782Z,74.59
2023-03-06T22:26:04.226Z,74.48
2023-03-06T22:28:31.289Z,74.31
2023-03-06T22:31:09.030Z,74.49
2023-03-06T22:33:36.119Z,74.62
2023-03-06T22:36:06.378Z,74.51
2023-03-06T22:38:35.878Z,74.47
2023-03-06T22:41:02.964Z,74.33
2023-03-06T22:43:29.796Z,74.42
2023-03-06T22:46:01.312Z,74.30
2023-03-06T22:48:28.354Z,74.55
2023-03-06T22:50:54.888Z,74.79
2023-03-06T22:53:21.864Z,74.50
2023-03-06T22:55:48.394Z,74.22
2023-03-06T22:58:15.539Z,74.35
2023-03-06T23:00:42.082Z,74.29
2023-03-06T23:03:09.050Z,74.67
2023-03-06T23:05:40.912Z,74.60
2023-03-06T23:08:07.447Z,74.45
2023-03-06T23:10:41.403Z,74.65
2023-03-06T23:13:07.999Z,74.67
2023-03-06T23:15:36.394Z,74.85
2023-03-06T23:18:03.453Z,74.84
2023-03-06T23:20:30.203Z,74.71
2023-03-06T23:22:56.716Z,74.48
2023-03-06T23:25:23.277Z,74.60
2023-03-06T23:27:49.829Z,74.49
2023-03-06T23:30:16.537Z,73.83
2023-03-06T23:32:45.765Z,73.61
2023-03-06T23:35:12.508Z,72.71
2023-03-06T23:37:39.140Z,71.58
2023-03-06T23:40:07.845Z,70.86
2023-03-06T23:42:34.351Z,71.29
2023-03-06T23:45:00.977Z,71.69
2023-03-06T23:47:31.510Z,71.58
2023-03-06T23:49:58.030Z,71.70
2023-03-06T23:52:24.703Z,71.81
2023-03-06T23:54:51.253Z,71.45
2023-03-06T23:57:17.799Z,70.73
2023-03-06T23:59:44.485Z,71.35
